sensor_id;sensor_type;location;lat;lon;timestamp;pressure;altitude;pressure_sealevel;temperature;humidity
53506;BME280;39388;50.936;6.848;2023-02-11T00:03:54;102903.94;;;7.94;73.00
53506;BME280;39388;50.936;6.848;2023-02-11T00:06:25;102905.78;;;7.96;72.94
53506;BME280;39388;50.936;6.848;2023-02-11T00:08:57;102896.31;;;7.95;72.83
53506;BME280;39388;50.936;6.848;2023-02-11T00:11:27;102906.69;;;7.98;73.16
53506;BME280;39388;50.936;6.848;2023-02-11T00:14:04;102904.88;;;7.96;72.78
53506;BME280;39388;50.936;6.848;2023-02-11T00:16:35;102912.75;;;8.01;73.19
53506;BME280;39388;50.936;6.848;2023-02-11T00:19:05;102892.16;;;7.99;72.76
53506;BME280;39388;50.936;6.848;2023-02-11T00:21:35;102900.81;;;8.01;72.90
53506;BME280;39388;50.936;6.848;2023-02-11T00:24:06;102887.97;;;8.01;72.68
53506;BME280;39388;50.936;6.848;2023-02-11T00:26:36;102876.56;;;7.94;72.61
53506;BME280;39388;50.936;6.848;2023-02-11T00:29:06;102883.47;;;7.95;73.25
53506;BME280;39388;50.936;6.848;2023-02-11T00:31:37;102893.72;;;7.95;72.76
53506;BME280;39388;50.936;6.848;2023-02-11T00:34:07;102885.91;;;7.92;72.79
53506;BME280;39388;50.936;6.848;2023-02-11T00:36:38;102885.84;;;7.91;73.03
53506;BME280;39388;50.936;6.848;2023-02-11T00:39:08;102882.38;;;7.90;72.74
53506;BME280;39388;50.936;6.848;2023-02-11T00:41:38;102884.00;;;7.88;73.07
53506;BME280;39388;50.936;6.848;2023-02-11T00:44:09;102889.09;;;7.87;73.12
53506;BME280;39388;50.936;6.848;2023-02-11T00:46:39;102881.19;;;7.82;72.81
53506;BME280;39388;50.936;6.848;2023-02-11T00:49:10;102878.50;;;7.79;73.50
53506;BME280;39388;50.936;6.848;2023-02-11T00:51:40;102886.06;;;7.76;73.03
53506;BME280;39388;50.936;6.848;2023-02-11T00:54:11;102871.91;;;7.64;73.53
53506;BME280;39388;50.936;6.848;2023-02-11T00:56:41;102874.53;;;7.66;73.17
53506;BME280;39388;50.936;6.848;2023-02-11T00:59:12;102870.91;;;7.61;73.52
53506;BME280;39388;50.936;6.848;2023-02-11T01:01:42;102868.97;;;7.55;73.80
53506;BME280;39388;50.936;6.848;2023-02-11T01:04:12;102854.03;;;7.46;73.56
53506;BME280;39388;50.936;6.848;2023-02-11T01:06:43;102852.19;;;7.44;73.77
53506;BME280;39388;50.936;6.848;2023-02-11T01:09:14;102868.56;;;7.46;73.70
53506;BME280;39388;50.936;6.848;2023-02-11T01:11:45;102873.44;;;7.40;74.07
53506;BME280;39388;50.936;6.848;2023-02-11T01:14:15;102873.28;;;7.36;73.97
53506;BME280;39388;50.936;6.848;2023-02-11T01:16:45;102873.88;;;7.31;74.53
53506;BME280;39388;50.936;6.848;2023-02-11T01:19:16;102877.25;;;7.30;74.20
53506;BME280;39388;50.936;6.848;2023-02-11T01:21:46;102883.06;;;7.26;74.05
53506;BME280;39388;50.936;6.848;2023-02-11T01:24:16;102888.19;;;7.26;74.97
53506;BME280;39388;50.936;6.848;2023-02-11T01:26:47;102885.56;;;7.24;74.51
53506;BME280;39388;50.936;6.848;2023-02-11T01:29:17;102883.88;;;7.25;74.47
53506;BME280;39388;50.936;6.848;2023-02-11T01:31:48;102874.16;;;7.17;74.81
53506;BME280;39388;50.936;6.848;2023-02-11T01:34:18;102881.16;;;7.21;74.78
53506;BME280;39388;50.936;6.848;2023-02-11T01:36:48;102865.56;;;7.17;75.10
53506;BME280;39388;50.936;6.848;2023-02-11T01:39:19;102873.47;;;7.21;74.91
53506;BME280;39388;50.936;6.848;2023-02-11T01:41:49;102867.47;;;7.21;75.13
53506;BME280;39388;50.936;6.848;2023-02-11T01:44:36;102879.41;;;7.20;74.87
53506;BME280;39388;50.936;6.848;2023-02-11T01:47:08;102891.56;;;7.25;74.60
53506;BME280;39388;50.936;6.848;2023-02-11T01:49:41;102900.97;;;7.24;74.91
53506;BME280;39388;50.936;6.848;2023-02-11T01:52:34;102905.50;;;7.30;75.14
53506;BME280;39388;50.936;6.848;2023-02-11T01:55:10;102907.34;;;7.34;75.03
53506;BME280;39388;50.936;6.848;2023-02-11T01:58:03;102908.41;;;7.38;74.99
53506;BME280;39388;50.936;6.848;2023-02-11T02:00:36;102907.59;;;7.39;75.12
53506;BME280;39388;50.936;6.848;2023-02-11T02:03:17;102892.19;;;7.39;74.51
53506;BME280;39388;50.936;6.848;2023-02-11T02:06:55;102896.72;;;7.44;74.64
53506;BME280;39388;50.936;6.848;2023-02-11T02:08:56;102897.59;;;7.45;74.49
53506;BME280;39388;50.936;6.848;2023-02-11T02:11:30;102906.31;;;7.48;74.47
53506;BME280;39388;50.936;6.848;2023-02-11T02:14:01;102889.91;;;7.45;74.90
53506;BME280;39388;50.936;6.848;2023-02-11T02:16:34;102887.41;;;7.46;75.11
53506;BME280;39388;50.936;6.848;2023-02-11T02:24:58;102884.75;;;7.45;74.82
53506;BME280;39388;50.936;6.848;2023-02-11T02:27:49;102882.06;;;7.42;75.31
53506;BME280;39388;50.936;6.848;2023-02-11T02:33:28;102869.69;;;7.33;75.17
53506;BME280;39388;50.936;6.848;2023-02-11T02:36:14;102880.69;;;7.30;75.20
53506;BME280;39388;50.936;6.848;2023-02-11T02:38:57;102880.53;;;7.27;74.94
53506;BME280;39388;50.936;6.848;2023-02-11T02:41:31;102871.03;;;7.25;75.72
53506;BME280;39388;50.936;6.848;2023-02-11T02:44:02;102857.72;;;7.14;75.79
53506;BME280;39388;50.936;6.848;2023-02-11T02:46:34;102865.50;;;7.15;75.72
53506;BME280;39388;50.936;6.848;2023-02-11T02:49:11;102861.81;;;7.09;75.34
53506;BME280;39388;50.936;6.848;2023-02-11T02:54:53;102856.13;;;6.96;76.14
53506;BME280;39388;50.936;6.848;2023-02-11T02:57:33;102839.38;;;6.85;76.11
53506;BME280;39388;50.936;6.848;2023-02-11T03:06:10;102843.44;;;6.80;76.04
53506;BME280;39388;50.936;6.848;2023-02-11T03:08:48;102831.13;;;6.72;76.37
53506;BME280;39388;50.936;6.848;2023-02-11T03:11:20;102837.06;;;6.71;76.69
53506;BME280;39388;50.936;6.848;2023-02-11T03:13:52;102822.22;;;6.64;76.73
53506;BME280;39388;50.936;6.848;2023-02-11T03:16:27;102825.13;;;6.72;76.60
53506;BME280;39388;50.936;6.848;2023-02-11T03:19:17;102827.09;;;6.78;76.69
53506;BME280;39388;50.936;6.848;2023-02-11T03:21:50;102833.31;;;6.83;76.41
53506;BME280;39388;50.936;6.848;2023-02-11T03:24:30;102822.31;;;6.85;76.42
53506;BME280;39388;50.936;6.848;2023-02-11T03:27:06;102828.38;;;6.87;76.43
53506;BME280;39388;50.936;6.848;2023-02-11T03:29:42;102828.53;;;6.90;76.53
53506;BME280;39388;50.936;6.848;2023-02-11T03:32:44;102823.16;;;6.86;76.31
53506;BME280;39388;50.936;6.848;2023-02-11T03:35:31;102840.50;;;6.91;76.68
53506;BME280;39388;50.936;6.848;2023-02-11T03:38:07;102818.94;;;6.86;76.73
53506;BME280;39388;50.936;6.848;2023-02-11T03:40:42;102839.00;;;6.95;76.53
53506;BME280;39388;50.936;6.848;2023-02-11T03:43:20;102827.91;;;6.96;76.43
53506;BME280;39388;50.936;6.848;2023-02-11T03:45:52;102821.97;;;6.97;76.42
53506;BME280;39388;50.936;6.848;2023-02-11T03:48:32;102814.28;;;6.97;76.46
53506;BME280;39388;50.936;6.848;2023-02-11T03:51:06;102811.78;;;6.99;76.29
53506;BME280;39388;50.936;6.848;2023-02-11T03:53:40;102814.34;;;6.99;76.42
53506;BME280;39388;50.936;6.848;2023-02-11T03:56:16;102797.88;;;6.94;76.78
53506;BME280;39388;50.936;6.848;2023-02-11T03:58:48;102809.16;;;6.97;76.81
53506;BME280;39388;50.936;6.848;2023-02-11T04:01:19;102810.97;;;7.00;76.86
53506;BME280;39388;50.936;6.848;2023-02-11T04:03:49;102813.53;;;7.00;76.72
53506;BME280;39388;50.936;6.848;2023-02-11T04:06:19;102798.75;;;6.94;77.15
53506;BME280;39388;50.936;6.848;2023-02-11T04:08:50;102825.88;;;7.09;76.42
53506;BME280;39388;50.936;6.848;2023-02-11T04:11:20;102822.63;;;7.13;76.41
53506;BME280;39388;50.936;6.848;2023-02-11T04:13:50;102827.09;;;7.17;76.24
53506;BME280;39388;50.936;6.848;2023-02-11T04:16:21;102820.94;;;7.13;76.67
53506;BME280;39388;50.936;6.848;2023-02-11T04:18:51;102826.31;;;7.19;76.95
53506;BME280;39388;50.936;6.848;2023-02-11T04:21:22;102827.97;;;7.17;76.29
53506;BME280;39388;50.936;6.848;2023-02-11T04:23:52;102821.94;;;7.17;76.25
53506;BME280;39388;50.936;6.848;2023-02-11T04:26:22;102819.56;;;7.21;76.25
53506;BME280;39388;50.936;6.848;2023-02-11T04:28:53;102816.28;;;7.24;76.76
53506;BME280;39388;50.936;6.848;2023-02-11T04:31:23;102797.09;;;7.16;76.58
53506;BME280;39388;50.936;6.848;2023-02-11T04:33:53;102808.50;;;7.22;76.70
53506;BME280;39388;50.936;6.848;2023-02-11T04:36:24;102808.59;;;7.24;76.82
53506;BME280;39388;50.936;6.848;2023-02-11T04:38:54;102800.09;;;7.25;76.73
53506;BME280;39388;50.936;6.848;2023-02-11T04:41:24;102791.44;;;7.23;76.55
53506;BME280;39388;50.936;6.848;2023-02-11T04:43:55;102796.75;;;7.28;76.77
53506;BME280;39388;50.936;6.848;2023-02-11T04:46:25;102799.47;;;7.31;76.57
53506;BME280;39388;50.936;6.848;2023-02-11T04:48:56;102789.88;;;7.27;77.17
53506;BME280;39388;50.936;6.848;2023-02-11T04:51:26;102796.81;;;7.29;76.96
53506;BME280;39388;50.936;6.848;2023-02-11T04:53:56;102789.88;;;7.27;76.90
53506;BME280;39388;50.936;6.848;2023-02-11T04:56:27;102801.13;;;7.30;76.45
53506;BME280;39388;50.936;6.848;2023-02-11T04:58:57;102776.66;;;7.17;77.10
53506;BME280;39388;50.936;6.848;2023-02-11T05:01:28;102795.13;;;7.30;76.70
53506;BME280;39388;50.936;6.848;2023-02-11T05:03:58;102784.69;;;7.25;77.03
53506;BME280;39388;50.936;6.848;2023-02-11T05:06:29;102801.22;;;7.32;76.78
53506;BME280;39388;50.936;6.848;2023-02-11T05:08:59;102805.53;;;7.33;76.73
53506;BME280;39388;50.936;6.848;2023-02-11T05:11:30;102800.31;;;7.31;76.97
53506;BME280;39388;50.936;6.848;2023-02-11T05:14:00;102807.22;;;7.32;77.06
53506;BME280;39388;50.936;6.848;2023-02-11T05:16:31;102804.66;;;7.32;76.68
53506;BME280;39388;50.936;6.848;2023-02-11T05:19:01;102804.69;;;7.34;76.67
53506;BME280;39388;50.936;6.848;2023-02-11T05:21:32;102792.72;;;7.33;76.58
53506;BME280;39388;50.936;6.848;2023-02-11T05:24:02;102785.59;;;7.27;77.13
53506;BME280;39388;50.936;6.848;2023-02-11T05:26:33;102793.53;;;7.32;76.85
53506;BME280;39388;50.936;6.848;2023-02-11T05:29:03;102801.22;;;7.32;77.24
53506;BME280;39388;50.936;6.848;2023-02-11T05:31:34;102802.84;;;7.30;77.57
53506;BME280;39388;50.936;6.848;2023-02-11T05:34:04;102801.22;;;7.32;77.62
53506;BME280;39388;50.936;6.848;2023-02-11T05:36:34;102793.44;;;7.30;77.13
53506;BME280;39388;50.936;6.848;2023-02-11T05:39:05;102792.63;;;7.31;77.57
53506;BME280;39388;50.936;6.848;2023-02-11T05:41:35;102792.56;;;7.30;77.83
53506;BME280;39388;50.936;6.848;2023-02-11T05:44:07;102789.88;;;7.27;77.78
53506;BME280;39388;50.936;6.848;2023-02-11T05:46:37;102790.00;;;7.30;77.54
53506;BME280;39388;50.936;6.848;2023-02-11T05:49:07;102793.53;;;7.32;77.78
53506;BME280;39388;50.936;6.848;2023-02-11T05:51:38;102782.19;;;7.27;77.66
53506;BME280;39388;50.936;6.848;2023-02-11T05:54:08;102797.72;;;7.30;78.27
53506;BME280;39388;50.936;6.848;2023-02-11T05:56:39;102791.81;;;7.32;78.19
53506;BME280;39388;50.936;6.848;2023-02-11T05:59:12;102778.63;;;7.23;78.34
53506;BME280;39388;50.936;6.848;2023-02-11T06:01:43;102767.41;;;7.21;78.64
53506;BME280;39388;50.936;6.848;2023-02-11T06:04:13;102769.41;;;7.28;79.13
53506;BME280;39388;50.936;6.848;2023-02-11T06:06:44;102774.63;;;7.30;79.14
53506;BME280;39388;50.936;6.848;2023-02-11T06:09:14;102782.44;;;7.33;78.68
53506;BME280;39388;50.936;6.848;2023-02-11T06:11:44;102779.00;;;7.32;79.37
53506;BME280;39388;50.936;6.848;2023-02-11T06:14:15;102784.16;;;7.34;79.07
53506;BME280;39388;50.936;6.848;2023-02-11T06:16:45;102773.81;;;7.31;79.38
53506;BME280;39388;50.936;6.848;2023-02-11T06:19:15;102763.53;;;7.31;79.74
53506;BME280;39388;50.936;6.848;2023-02-11T06:21:46;102769.53;;;7.31;79.56
53506;BME280;39388;50.936;6.848;2023-02-11T06:24:16;102762.59;;;7.29;79.73
53506;BME280;39388;50.936;6.848;2023-02-11T06:26:47;102765.22;;;7.30;79.93
53506;BME280;39388;50.936;6.848;2023-02-11T06:29:17;102768.72;;;7.32;79.57
53506;BME280;39388;50.936;6.848;2023-02-11T06:31:48;102771.28;;;7.32;79.45
53506;BME280;39388;50.936;6.848;2023-02-11T06:34:18;102771.28;;;7.32;80.02
53506;BME280;39388;50.936;6.848;2023-02-11T06:36:48;102777.09;;;7.28;79.99
53506;BME280;39388;50.936;6.848;2023-02-11T06:39:19;102779.88;;;7.33;79.68
53506;BME280;39388;50.936;6.848;2023-02-11T06:41:49;102787.69;;;7.36;80.03
53506;BME280;39388;50.936;6.848;2023-02-11T06:44:20;102791.31;;;7.40;79.88
53506;BME280;39388;50.936;6.848;2023-02-11T06:46:50;102785.13;;;7.36;79.63
53506;BME280;39388;50.936;6.848;2023-02-11T06:49:20;102783.34;;;7.35;80.12
53506;BME280;39388;50.936;6.848;2023-02-11T06:51:51;102781.69;;;7.35;80.20
53506;BME280;39388;50.936;6.848;2023-02-11T06:54:21;102787.75;;;7.38;80.37
53506;BME280;39388;50.936;6.848;2023-02-11T06:56:51;102797.34;;;7.42;80.42
53506;BME280;39388;50.936;6.848;2023-02-11T06:59:22;102801.69;;;7.43;80.77
53506;BME280;39388;50.936;6.848;2023-02-11T07:01:52;102790.38;;;7.39;79.97
53506;BME280;39388;50.936;6.848;2023-02-11T07:04:22;102799.91;;;7.42;80.03
53506;BME280;39388;50.936;6.848;2023-02-11T07:06:53;102806.09;;;7.45;80.55
53506;BME280;39388;50.936;6.848;2023-02-11T07:09:23;102815.47;;;7.45;80.27
53506;BME280;39388;50.936;6.848;2023-02-11T07:11:53;102814.50;;;7.43;80.45
53506;BME280;39388;50.936;6.848;2023-02-11T07:14:24;102806.81;;;7.43;80.89
53506;BME280;39388;50.936;6.848;2023-02-11T07:16:54;102808.69;;;7.47;80.88
53506;BME280;39388;50.936;6.848;2023-02-11T07:19:25;102808.75;;;7.48;80.53
53506;BME280;39388;50.936;6.848;2023-02-11T07:21:55;102797.50;;;7.45;80.41
53506;BME280;39388;50.936;6.848;2023-02-11T07:24:25;102814.72;;;7.47;80.45
53506;BME280;39388;50.936;6.848;2023-02-11T07:26:56;102818.03;;;7.45;81.07
53506;BME280;39388;50.936;6.848;2023-02-11T07:29:26;102819.78;;;7.46;80.75
53506;BME280;39388;50.936;6.848;2023-02-11T07:31:57;102819.03;;;7.48;80.98
53506;BME280;39388;50.936;6.848;2023-02-11T07:34:27;102824.16;;;7.48;81.08
53506;BME280;39388;50.936;6.848;2023-02-11T07:36:58;102831.06;;;7.49;81.22
53506;BME280;39388;50.936;6.848;2023-02-11T07:39:28;102823.09;;;7.43;81.08
53506;BME280;39388;50.936;6.848;2023-02-11T07:41:58;102836.06;;;7.46;82.02
53506;BME280;39388;50.936;6.848;2023-02-11T07:44:29;102832.69;;;7.47;81.84
53506;BME280;39388;50.936;6.848;2023-02-11T07:46:59;102828.56;;;7.51;82.04
53506;BME280;39388;50.936;6.848;2023-02-11T07:49:30;102829.28;;;7.48;81.82
53506;BME280;39388;50.936;6.848;2023-02-11T07:52:00;102825.19;;;7.52;81.86
53506;BME280;39388;50.936;6.848;2023-02-11T07:54:30;102831.13;;;7.51;81.92
53506;BME280;39388;50.936;6.848;2023-02-11T07:57:01;102826.94;;;7.53;82.61
53506;BME280;39388;50.936;6.848;2023-02-11T07:59:31;102816.47;;;7.48;82.77
53506;BME280;39388;50.936;6.848;2023-02-11T08:02:02;102828.56;;;7.51;82.63
53506;BME280;39388;50.936;6.848;2023-02-11T08:04:33;102839.88;;;7.56;82.42
53506;BME280;39388;50.936;6.848;2023-02-11T08:07:03;102851.09;;;7.58;82.62
53506;BME280;39388;50.936;6.848;2023-02-11T08:09:34;102831.75;;;7.45;82.93
53506;BME280;39388;50.936;6.848;2023-02-11T08:12:04;102848.44;;;7.55;82.95
53506;BME280;39388;50.936;6.848;2023-02-11T08:14:35;102849.34;;;7.57;82.94
53506;BME280;39388;50.936;6.848;2023-02-11T08:17:05;102854.41;;;7.56;83.09
53506;BME280;39388;50.936;6.848;2023-02-11T08:19:35;102844.28;;;7.59;83.08
53506;BME280;39388;50.936;6.848;2023-02-11T08:22:06;102857.19;;;7.60;83.19
53506;BME280;39388;50.936;6.848;2023-02-11T08:24:36;102846.84;;;7.59;83.66
53506;BME280;39388;50.936;6.848;2023-02-11T08:27:07;102850.56;;;7.65;83.52
53506;BME280;39388;50.936;6.848;2023-02-11T08:29:37;102851.41;;;7.66;83.52
53506;BME280;39388;50.936;6.848;2023-02-11T08:32:07;102842.84;;;7.65;83.72
53506;BME280;39388;50.936;6.848;2023-02-11T08:34:38;102855.19;;;7.74;83.61
53506;BME280;39388;50.936;6.848;2023-02-11T08:37:08;102851.88;;;7.77;83.07
53506;BME280;39388;50.936;6.848;2023-02-11T08:39:38;102856.06;;;7.75;83.62
53506;BME280;39388;50.936;6.848;2023-02-11T08:42:09;102862.31;;;7.81;83.69
53506;BME280;39388;50.936;6.848;2023-02-11T08:44:39;102855.53;;;7.82;83.32
53506;BME280;39388;50.936;6.848;2023-02-11T08:47:10;102854.56;;;7.80;83.43
53506;BME280;39388;50.936;6.848;2023-02-11T08:49:40;102862.50;;;7.86;83.62
53506;BME280;39388;50.936;6.848;2023-02-11T08:52:11;102861.78;;;7.89;83.65
53506;BME280;39388;50.936;6.848;2023-02-11T08:54:41;102871.16;;;7.88;83.43
53506;BME280;39388;50.936;6.848;2023-02-11T08:57:12;102866.09;;;7.90;83.93
53506;BME280;39388;50.936;6.848;2023-02-11T08:59:42;102881.44;;;7.88;83.75
53506;BME280;39388;50.936;6.848;2023-02-11T09:02:13;102885.72;;;7.88;83.93
53506;BME280;39388;50.936;6.848;2023-02-11T09:04:43;102883.00;;;7.85;83.81
53506;BME280;39388;50.936;6.848;2023-02-11T09:07:14;102884.78;;;7.86;83.82
53506;BME280;39388;50.936;6.848;2023-02-11T09:09:44;102895.16;;;7.89;83.96
53506;BME280;39388;50.936;6.848;2023-02-11T09:12:14;102897.13;;;7.94;83.74
53506;BME280;39388;50.936;6.848;2023-02-11T09:14:45;102895.34;;;7.93;83.81
53506;BME280;39388;50.936;6.848;2023-02-11T09:17:15;102896.78;;;7.87;83.70
53506;BME280;39388;50.936;6.848;2023-02-11T09:19:45;102908.06;;;7.90;83.35
53506;BME280;39388;50.936;6.848;2023-02-11T09:22:16;102905.44;;;7.89;83.74
53506;BME280;39388;50.936;6.848;2023-02-11T09:24:46;102908.97;;;7.91;83.89
53506;BME280;39388;50.936;6.848;2023-02-11T09:27:17;102907.25;;;7.91;83.65
53506;BME280;39388;50.936;6.848;2023-02-11T09:29:47;102906.41;;;7.91;83.91
53506;BME280;39388;50.936;6.848;2023-02-11T09:32:17;102909.78;;;7.90;84.21
53506;BME280;39388;50.936;6.848;2023-02-11T09:34:48;102904.50;;;7.87;84.32
53506;BME280;39388;50.936;6.848;2023-02-11T09:37:18;102918.47;;;7.93;84.17
53506;BME280;39388;50.936;6.848;2023-02-11T09:39:48;102910.00;;;7.96;84.13
53506;BME280;39388;50.936;6.848;2023-02-11T09:44:49;102918.78;;;8.01;83.68
53506;BME280;39388;50.936;6.848;2023-02-11T09:47:24;102917.22;;;8.05;83.90
53506;BME280;39388;50.936;6.848;2023-02-11T09:50:02;102912.75;;;8.01;83.73
53506;BME280;39388;50.936;6.848;2023-02-11T09:55:27;102925.13;;;8.09;83.99
53506;BME280;39388;50.936;6.848;2023-02-11T09:57:57;102919.16;;;8.10;83.90
53506;BME280;39388;50.936;6.848;2023-02-11T10:00:32;102923.53;;;8.13;83.85
53506;BME280;39388;50.936;6.848;2023-02-11T10:17:25;102938.91;;;8.33;83.26
53506;BME280;39388;50.936;6.848;2023-02-11T10:22:51;102942.41;;;8.35;82.92
53506;BME280;39388;50.936;6.848;2023-02-11T10:25:28;102943.19;;;8.32;83.26
53506;BME280;39388;50.936;6.848;2023-02-11T10:28:14;102957.06;;;8.37;83.25
53506;BME280;39388;50.936;6.848;2023-02-11T10:30:55;102952.75;;;8.36;83.10
53506;BME280;39388;50.936;6.848;2023-02-11T10:33:40;102951.13;;;8.38;83.32
53506;BME280;39388;50.936;6.848;2023-02-11T10:36:14;102949.53;;;8.42;83.18
53506;BME280;39388;50.936;6.848;2023-02-11T10:38:45;102942.69;;;8.41;83.17
53506;BME280;39388;50.936;6.848;2023-02-11T10:41:20;102941.97;;;8.45;83.29
53506;BME280;39388;50.936;6.848;2023-02-11T10:43:51;102940.34;;;8.47;82.99
53506;BME280;39388;50.936;6.848;2023-02-11T10:46:28;102948.19;;;8.50;83.54
53506;BME280;39388;50.936;6.848;2023-02-11T10:49:00;102949.22;;;8.55;83.49
53506;BME280;39388;50.936;6.848;2023-02-11T10:51:32;102942.22;;;8.51;83.29
53506;BME280;39388;50.936;6.848;2023-02-11T10:56:36;102950.16;;;8.57;83.29
53506;BME280;39388;50.936;6.848;2023-02-11T10:59:31;102948.53;;;8.59;82.96
53506;BME280;39388;50.936;6.848;2023-02-11T11:02:17;102951.06;;;8.58;83.47
53506;BME280;39388;50.936;6.848;2023-02-11T11:04:54;102951.19;;;8.61;83.09
53506;BME280;39388;50.936;6.848;2023-02-11T11:07:28;102951.22;;;8.63;83.20
53506;BME280;39388;50.936;6.848;2023-02-11T11:10:02;102951.28;;;8.64;83.17
53506;BME280;39388;50.936;6.848;2023-02-11T11:12:36;102948.59;;;8.61;82.96
53506;BME280;39388;50.936;6.848;2023-02-11T11:17:49;102949.41;;;8.60;83.44
53506;BME280;39388;50.936;6.848;2023-02-11T11:20:28;102946.84;;;8.60;83.09
53506;BME280;39388;50.936;6.848;2023-02-11T11:23:14;102949.53;;;8.63;83.24
53506;BME280;39388;50.936;6.848;2023-02-11T11:28:32;102950.59;;;8.68;83.19
53506;BME280;39388;50.936;6.848;2023-02-11T11:31:16;102942.88;;;8.68;83.07
53506;BME280;39388;50.936;6.848;2023-02-11T11:33:50;102939.44;;;8.68;82.96
53506;BME280;39388;50.936;6.848;2023-02-11T11:36:31;102939.59;;;8.72;83.21
53506;BME280;39388;50.936;6.848;2023-02-11T11:39:32;102942.31;;;8.76;82.81
53506;BME280;39388;50.936;6.848;2023-02-11T11:42:23;102944.88;;;8.76;83.03
53506;BME280;39388;50.936;6.848;2023-02-11T11:47:50;102932.22;;;8.82;82.93
53506;BME280;39388;50.936;6.848;2023-02-11T11:50:29;102940.03;;;8.83;82.95
53506;BME280;39388;50.936;6.848;2023-02-11T11:56:02;102926.16;;;8.80;82.77
53506;BME280;39388;50.936;6.848;2023-02-11T11:58:33;102919.97;;;8.74;82.95
53506;BME280;39388;50.936;6.848;2023-02-11T12:15:14;102923.81;;;8.86;82.72
53506;BME280;39388;50.936;6.848;2023-02-11T12:18:04;102928.19;;;8.88;82.63
53506;BME280;39388;50.936;6.848;2023-02-11T12:20:48;102921.25;;;8.86;82.54
53506;BME280;39388;50.936;6.848;2023-02-11T12:26:34;102932.34;;;8.85;82.42
53506;BME280;39388;50.936;6.848;2023-02-11T12:29:36;102950.41;;;8.86;82.66
53506;BME280;39388;50.936;6.848;2023-02-11T12:32:13;102947.03;;;8.87;82.73
53506;BME280;39388;50.936;6.848;2023-02-11T12:43:09;102946.28;;;8.90;82.52
53506;BME280;39388;50.936;6.848;2023-02-11T12:48:58;102937.91;;;8.96;82.80
53506;BME280;39388;50.936;6.848;2023-02-11T12:54:41;102939.84;;;9.01;82.58
53506;BME280;39388;50.936;6.848;2023-02-11T12:57:20;102928.44;;;8.95;82.87
53506;BME280;39388;50.936;6.848;2023-02-11T13:02:39;102927.84;;;9.02;83.16
53506;BME280;39388;50.936;6.848;2023-02-11T13:05:34;102934.91;;;9.08;83.00
53506;BME280;39388;50.936;6.848;2023-02-11T13:08:24;102920.47;;;9.11;82.83
53506;BME280;39388;50.936;6.848;2023-02-11T13:11:07;102917.94;;;9.13;82.86
53506;BME280;39388;50.936;6.848;2023-02-11T13:16:35;102919.00;;;9.18;82.96
53506;BME280;39388;50.936;6.848;2023-02-11T13:24:47;102926.66;;;9.16;82.83
53506;BME280;39388;50.936;6.848;2023-02-11T13:30:33;102920.56;;;9.14;82.93
53506;BME280;39388;50.936;6.848;2023-02-11T13:33:16;102909.13;;;9.06;82.87
53506;BME280;39388;50.936;6.848;2023-02-11T13:36:04;102905.78;;;9.09;83.23
53506;BME280;39388;50.936;6.848;2023-02-11T13:38:38;102904.09;;;9.09;83.01
53506;BME280;39388;50.936;6.848;2023-02-11T13:49:22;102926.47;;;9.12;83.15
53506;BME280;39388;50.936;6.848;2023-02-11T13:51:54;102919.66;;;9.12;83.32
53506;BME280;39388;50.936;6.848;2023-02-11T13:54:32;102909.97;;;9.07;83.45
53506;BME280;39388;50.936;6.848;2023-02-11T13:59:54;102914.69;;;9.17;83.21
53506;BME280;39388;50.936;6.848;2023-02-11T14:05:21;102918.28;;;9.22;83.12
53506;BME280;39388;50.936;6.848;2023-02-11T14:11:04;102918.38;;;9.25;83.18
53506;BME280;39388;50.936;6.848;2023-02-11T14:16:19;102912.47;;;9.28;83.14
53506;BME280;39388;50.936;6.848;2023-02-11T14:40:53;102920.25;;;9.54;82.50
53506;BME280;39388;50.936;6.848;2023-02-11T14:43:33;102922.88;;;9.55;82.39
53506;BME280;39388;50.936;6.848;2023-02-11T14:46:05;102922.84;;;9.54;82.32
53506;BME280;39388;50.936;6.848;2023-02-11T14:48:37;102920.31;;;9.55;82.61
53506;BME280;39388;50.936;6.848;2023-02-11T14:51:16;102925.56;;;9.58;82.36
53506;BME280;39388;50.936;6.848;2023-02-11T14:53:50;102923.94;;;9.60;82.41
53506;BME280;39388;50.936;6.848;2023-02-11T14:56:27;102930.75;;;9.60;82.32
53506;BME280;39388;50.936;6.848;2023-02-11T14:59:00;102924.75;;;9.59;82.43
53506;BME280;39388;50.936;6.848;2023-02-11T15:01:32;102927.38;;;9.61;82.57
53506;BME280;39388;50.936;6.848;2023-02-11T15:04:13;102929.81;;;9.58;82.52
53506;BME280;39388;50.936;6.848;2023-02-11T15:06:51;102932.47;;;9.59;82.43
53506;BME280;39388;50.936;6.848;2023-02-11T15:09:39;102926.13;;;9.49;82.65
53506;BME280;39388;50.936;6.848;2023-02-11T15:12:17;102932.25;;;9.53;82.56
53506;BME280;39388;50.936;6.848;2023-02-11T15:14:54;102931.47;;;9.56;82.63
53506;BME280;39388;50.936;6.848;2023-02-11T15:17:29;102932.31;;;9.55;82.61
53506;BME280;39388;50.936;6.848;2023-02-11T15:20:01;102928.00;;;9.54;82.69
53506;BME280;39388;50.936;6.848;2023-02-11T15:22:33;102927.09;;;9.53;82.75
53506;BME280;39388;50.936;6.848;2023-02-11T15:27:41;102928.00;;;9.54;82.74
53506;BME280;39388;50.936;6.848;2023-02-11T15:30:31;102927.09;;;9.53;82.79
53506;BME280;39388;50.936;6.848;2023-02-11T15:33:04;102927.91;;;9.52;82.42
53506;BME280;39388;50.936;6.848;2023-02-11T15:35:36;102933.84;;;9.49;82.83
53506;BME280;39388;50.936;6.848;2023-02-11T15:38:10;102932.78;;;9.44;82.51
53506;BME280;39388;50.936;6.848;2023-02-11T15:40:55;102926.34;;;9.31;82.61
53506;BME280;39388;50.936;6.848;2023-02-11T15:43:45;102938.75;;;9.43;82.87
53506;BME280;39388;50.936;6.848;2023-02-11T15:46:18;102942.97;;;9.41;82.62
53506;BME280;39388;50.936;6.848;2023-02-11T15:48:51;102939.50;;;9.39;82.58
53506;BME280;39388;50.936;6.848;2023-02-11T15:51:28;102950.66;;;9.40;82.65
53506;BME280;39388;50.936;6.848;2023-02-11T15:54:15;102946.28;;;9.37;82.88
53506;BME280;39388;50.936;6.848;2023-02-11T15:56:50;102948.97;;;9.40;82.90
53506;BME280;39388;50.936;6.848;2023-02-11T15:59:32;102946.41;;;9.40;82.70
53506;BME280;39388;50.936;6.848;2023-02-11T16:02:14;102942.88;;;9.38;82.80